createdAt,value
2018-09-10T00:01:05.296Z,2.60
2018-09-10T00:03:35.024Z,3.43
2018-09-10T00:06:04.136Z,4.20
2018-09-10T00:08:33.240Z,4.40
2018-09-10T00:11:03.400Z,4.20
2018-09-10T00:13:32.556Z,2.87
2018-09-10T00:16:01.684Z,4.67
2018-09-10T00:18:31.090Z,7.13
2018-09-10T00:21:01.541Z,3.60
2018-09-10T00:23:30.729Z,4.27
2018-09-10T00:26:00.263Z,3.93
2018-09-10T00:28:30.200Z,5.37
2018-09-10T00:30:59.445Z,5.00
2018-09-10T00:33:29.580Z,5.13
2018-09-10T00:36:01.046Z,3.33
2018-09-10T00:38:30.673Z,3.13
2018-09-10T00:41:00.050Z,5.70
2018-09-10T00:43:29.089Z,3.93
2018-09-10T00:45:58.274Z,3.57
2018-09-10T00:48:27.334Z,3.33
2018-09-10T00:50:56.783Z,4.27
2018-09-10T00:53:26.089Z,5.27
2018-09-10T00:55:55.180Z,3.37
2018-09-10T00:58:24.273Z,3.63
2018-09-10T01:00:53.680Z,5.07
2018-09-10T01:03:23.648Z,4.50
2018-09-10T01:05:52.724Z,3.27
2018-09-10T01:08:21.846Z,3.57
2018-09-10T01:10:51.227Z,3.53
2018-09-10T01:13:20.363Z,4.57
2018-09-10T01:15:49.571Z,2.47
2018-09-10T01:18:18.749Z,3.73
2018-09-10T01:20:47.905Z,2.90
2018-09-10T01:23:17.028Z,3.30
2018-09-10T01:25:46.115Z,3.80
2018-09-10T01:28:16.344Z,2.90
2018-09-10T01:30:48.033Z,2.77
2018-09-10T01:33:22.584Z,2.87
2018-09-10T01:35:52.444Z,3.13
2018-09-10T01:38:21.405Z,3.63
2018-09-10T01:40:50.455Z,2.37
2018-09-10T01:43:19.949Z,2.97
2018-09-10T01:45:51.413Z,3.23
2018-09-10T01:48:21.311Z,2.00
2018-09-10T01:50:51.518Z,3.83
2018-09-10T01:53:20.581Z,3.00
2018-09-10T01:55:49.585Z,3.70
2018-09-10T01:58:18.735Z,5.53
2018-09-10T02:00:49.204Z,3.10
2018-09-10T02:03:18.292Z,3.33
2018-09-10T02:05:50.399Z,2.60
2018-09-10T02:08:19.649Z,2.90
2018-09-10T02:10:48.566Z,2.90
2018-09-10T02:13:17.461Z,5.37
2018-09-10T02:15:52.673Z,4.17
2018-09-10T02:18:22.772Z,5.50
2018-09-10T02:20:51.815Z,2.70
2018-09-10T02:23:21.409Z,3.57
2018-09-10T02:25:50.553Z,3.10
2018-09-10T02:28:19.721Z,4.90
2018-09-10T02:30:48.974Z,3.70
2018-09-10T02:33:18.171Z,2.20
2018-09-10T02:35:47.322Z,6.30
2018-09-10T02:38:17.782Z,4.47
2018-09-10T02:40:47.104Z,3.67
2018-09-10T02:43:16.305Z,4.87
2018-09-10T02:45:45.427Z,4.67
2018-09-10T02:48:14.850Z,4.93
2018-09-10T02:50:44.025Z,3.73
2018-09-10T02:53:13.162Z,3.13
2018-09-10T02:58:37.167Z,2.60
2018-09-10T03:01:06.301Z,4.87
2018-09-10T03:03:35.178Z,4.63
2018-09-10T03:06:04.339Z,7.00
2018-09-10T03:08:33.969Z,3.40
2018-09-10T03:11:03.120Z,4.27
2018-09-10T03:13:32.660Z,3.37
2018-09-10T03:16:01.625Z,3.40
2018-09-10T03:18:33.072Z,4.30
2018-09-10T03:21:02.408Z,4.00
2018-09-10T03:23:31.309Z,5.50
2018-09-10T03:26:03.044Z,5.37
2018-09-10T03:28:32.206Z,3.90
2018-09-10T03:31:01.104Z,3.70
2018-09-10T03:33:29.960Z,4.07
2018-09-10T03:36:00.167Z,4.27
2018-09-10T03:38:29.048Z,4.23
2018-09-10T03:40:58.340Z,4.13
2018-09-10T03:43:27.467Z,4.90
2018-09-10T03:46:02.164Z,7.63
2018-09-10T03:48:31.092Z,4.07
2018-09-10T03:51:00.033Z,5.83
2018-09-10T03:53:29.277Z,3.67
2018-09-10T03:55:58.187Z,4.77
2018-09-10T03:59:34.508Z,5.27
2018-09-10T04:02:03.578Z,3.87
2018-09-10T04:04:33.025Z,2.83
2018-09-10T04:07:02.178Z,6.33
2018-09-10T04:09:31.348Z,4.93
2018-09-10T04:12:00.458Z,4.13
2018-09-10T04:14:35.716Z,5.10
2018-09-10T04:17:05.145Z,5.57
2018-09-10T04:19:34.384Z,4.63
2018-09-10T04:22:03.503Z,3.67
2018-09-10T04:24:32.998Z,5.47
2018-09-10T04:27:02.135Z,5.33
2018-09-10T04:29:31.349Z,5.67
2018-09-10T04:32:00.322Z,3.87
2018-09-10T04:34:29.190Z,7.57
2018-09-10T04:36:58.325Z,6.27
2018-09-10T04:39:37.810Z,6.27
2018-09-10T04:42:06.815Z,7.47
2018-09-10T04:44:35.655Z,4.50
2018-09-10T04:47:05.954Z,9.10
2018-09-10T04:49:35.103Z,10.33
2018-09-10T04:52:04.143Z,9.23
2018-09-10T04:54:33.174Z,5.03
2018-09-10T04:57:02.464Z,7.67
2018-09-10T04:59:31.465Z,6.97
2018-09-10T05:02:00.615Z,5.60
2018-09-10T05:04:29.837Z,4.83
2018-09-10T05:06:59.225Z,7.77
2018-09-10T05:09:28.356Z,6.70
2018-09-10T05:11:57.573Z,6.43
2018-09-10T05:14:26.688Z,7.57
2018-09-10T05:16:55.725Z,5.37
2018-09-10T05:19:25.097Z,6.27
2018-09-10T05:21:54.350Z,6.17
2018-09-10T05:24:23.221Z,9.80
2018-09-10T05:26:52.130Z,9.20
2018-09-10T05:29:21.054Z,8.07
2018-09-10T05:31:50.046Z,6.97
2018-09-10T05:34:19.178Z,10.53
2018-09-10T05:36:48.321Z,6.57
2018-09-10T05:39:17.383Z,8.93
2018-09-10T05:41:47.217Z,7.93
2018-09-10T05:44:16.143Z,8.20
2018-09-10T05:46:51.371Z,10.10
2018-09-10T05:49:20.285Z,11.40
2018-09-10T05:51:49.168Z,7.57
2018-09-10T05:54:18.081Z,10.53
2018-09-10T05:56:47.237Z,13.80
2018-09-10T05:59:16.463Z,10.40
2018-09-10T06:01:45.654Z,15.63
2018-09-10T06:04:14.953Z,10.30
2018-09-10T06:06:43.929Z,11.97
2018-09-10T06:09:13.507Z,14.40
2018-09-10T06:11:42.326Z,10.13
2018-09-10T06:14:11.146Z,14.60
2018-09-10T06:16:40.010Z,14.30
2018-09-10T06:19:11.400Z,20.67
2018-09-10T06:21:40.328Z,10.63
2018-09-10T06:24:09.469Z,13.63
2018-09-10T06:26:38.569Z,12.10
2018-09-10T06:29:07.408Z,10.43
2018-09-10T06:31:36.329Z,16.40
2018-09-10T06:34:05.475Z,16.80
2018-09-10T06:36:35.657Z,13.13
2018-09-10T06:39:06.662Z,17.80
2018-09-10T06:41:36.501Z,10.20
2018-09-10T06:44:05.725Z,13.00
2018-09-10T06:46:34.699Z,14.57
2018-09-10T06:49:03.571Z,16.07
2018-09-10T06:51:33.730Z,12.87
2018-09-10T06:54:02.674Z,14.43
2018-09-10T06:56:31.481Z,16.10
2018-09-10T06:59:00.343Z,18.60
2018-09-10T07:01:30.788Z,10.83
2018-09-10T07:03:59.695Z,15.27
2018-09-10T07:06:28.613Z,14.47
2018-09-10T07:08:57.576Z,18.17
2018-09-10T07:11:26.837Z,20.03
2018-09-10T07:13:55.726Z,20.77
2018-09-10T07:16:24.693Z,14.17
2018-09-10T07:18:53.594Z,16.87
2018-09-10T07:21:22.523Z,22.90
2018-09-10T07:23:51.380Z,17.30
2018-09-10T07:26:21.376Z,19.00
2018-09-10T07:28:50.217Z,20.90
2018-09-10T07:31:19.343Z,15.57
2018-09-10T07:33:55.730Z,24.47
2018-09-10T07:36:28.501Z,20.57
2018-09-10T07:38:58.811Z,16.93
2018-09-10T07:41:27.784Z,15.67
2018-09-10T07:43:56.712Z,19.90
2018-09-10T07:46:26.022Z,17.53
2018-09-10T07:48:55.203Z,17.87
2018-09-10T07:51:24.471Z,19.10
2018-09-10T07:53:53.355Z,16.43
2018-09-10T07:56:24.341Z,22.03
2018-09-10T07:58:53.619Z,19.73
2018-09-10T08:01:22.513Z,17.23
2018-09-10T08:03:51.550Z,20.63
2018-09-10T08:06:21.116Z,19.33
2018-09-10T08:08:50.634Z,23.03
2018-09-10T08:11:19.874Z,24.57
2018-09-10T08:13:50.503Z,21.97
2018-09-10T08:16:28.392Z,19.10
2018-09-10T08:18:58.397Z,19.50
2018-09-10T08:21:28.828Z,17.27
2018-09-10T08:23:57.872Z,23.10
2018-09-10T08:26:28.142Z,22.07
2018-09-10T08:28:57.009Z,30.00
2018-09-10T08:31:26.192Z,16.60
2018-09-10T08:33:57.365Z,18.80
2018-09-10T08:36:27.459Z,21.00
2018-09-10T08:38:58.558Z,28.50
2018-09-10T08:41:28.242Z,20.57
2018-09-10T08:43:57.250Z,21.17
2018-09-10T08:46:26.387Z,19.37
2018-09-10T08:48:55.220Z,21.90
2018-09-10T08:51:24.500Z,21.07
2018-09-10T08:53:54.105Z,22.53
2018-09-10T08:56:22.948Z,17.30
2018-09-10T08:58:52.221Z,24.00
2018-09-10T09:01:22.063Z,18.27
2018-09-10T09:03:50.921Z,26.13
2018-09-10T09:06:19.773Z,17.70
2018-09-10T09:08:48.675Z,21.47
2018-09-10T09:11:17.655Z,22.43
2018-09-10T09:13:46.798Z,15.17
2018-09-10T09:16:16.070Z,20.70
2018-09-10T09:18:45.013Z,18.30
2018-09-10T09:21:13.839Z,19.40
2018-09-10T09:23:42.772Z,22.23
2018-09-10T09:26:12.035Z,21.17
2018-09-10T09:28:41.825Z,26.83
2018-09-10T09:31:12.967Z,20.10
2018-09-10T09:33:42.629Z,19.77
2018-09-10T09:36:19.207Z,20.20
2018-09-10T09:38:54.800Z,24.00
2018-09-10T09:41:30.123Z,24.20
2018-09-10T09:44:04.970Z,15.03
2018-09-10T09:46:35.795Z,18.27
2018-09-10T09:49:04.988Z,21.80
2018-09-10T09:51:35.517Z,21.60
2018-09-10T09:54:05.657Z,17.20
2018-09-10T09:56:35.516Z,21.07
2018-09-10T09:59:04.502Z,21.33
2018-09-10T10:01:38.819Z,16.30
2018-09-10T10:04:11.644Z,20.90
2018-09-10T10:06:40.844Z,20.03
2018-09-10T10:09:12.864Z,20.00
2018-09-10T10:11:42.399Z,17.63
2018-09-10T10:14:12.079Z,13.63
2018-09-10T10:16:41.352Z,17.80
2018-09-10T10:19:10.561Z,16.40
2018-09-10T10:21:39.504Z,14.47
2018-09-10T10:24:08.711Z,15.93
2018-09-10T10:26:37.956Z,13.67
2018-09-10T10:29:07.665Z,13.87
2018-09-10T10:31:37.296Z,8.93
2018-09-10T10:34:08.264Z,13.67
2018-09-10T10:36:38.036Z,14.23
2018-09-10T10:39:08.789Z,10.37
2018-09-10T10:41:38.221Z,8.77
2018-09-10T10:44:07.476Z,12.07
2018-09-10T10:46:37.671Z,13.37
2018-09-10T10:49:07.251Z,11.90
2018-09-10T10:51:36.218Z,10.43
2018-09-10T10:54:05.316Z,11.63
2018-09-10T10:56:34.429Z,9.43
2018-09-10T10:59:04.689Z,14.80
2018-09-10T11:01:34.277Z,10.13
2018-09-10T11:04:03.184Z,9.23
2018-09-10T11:06:32.076Z,8.17
2018-09-10T11:09:01.235Z,11.73
2018-09-10T11:11:31.257Z,12.40
2018-09-10T11:14:00.185Z,11.10
2018-09-10T11:16:29.247Z,12.40
2018-09-10T11:18:58.776Z,9.50
2018-09-10T11:21:27.845Z,6.60
2018-09-10T11:23:57.444Z,9.50
2018-09-10T11:26:27.775Z,14.60
2018-09-10T11:28:58.217Z,10.27
2018-09-10T11:31:28.116Z,10.57
2018-09-10T11:34:00.528Z,9.70
2018-09-10T11:36:36.985Z,9.60
2018-09-10T11:39:09.483Z,8.27
2018-09-10T11:41:40.912Z,8.83
2018-09-10T11:44:10.741Z,9.33
2018-09-10T11:46:41.458Z,12.13
2018-09-10T11:49:14.663Z,10.97
2018-09-10T11:51:45.809Z,7.47
2018-09-10T11:54:14.695Z,9.27
2018-09-10T11:56:46.243Z,12.03
2018-09-10T11:59:16.112Z,9.93
2018-09-10T12:01:45.512Z,9.93
2018-09-10T12:04:16.068Z,11.40
2018-09-10T12:06:45.980Z,11.37
2018-09-10T12:09:16.719Z,7.40
2018-09-10T12:11:47.043Z,10.63
2018-09-10T12:14:16.270Z,11.77
2018-09-10T12:16:45.824Z,8.63
2018-09-10T12:19:15.150Z,9.33
2018-09-10T12:21:44.445Z,9.53
2018-09-10T12:24:14.605Z,12.73
2018-09-10T12:26:44.479Z,8.10
2018-09-10T12:29:13.745Z,9.03
2018-09-10T12:31:43.793Z,8.17
2018-09-10T12:34:15.425Z,8.83
2018-09-10T12:36:44.741Z,5.93
2018-09-10T12:39:15.681Z,4.43
2018-09-10T12:41:46.289Z,5.17
2018-09-10T12:44:16.648Z,5.73
2018-09-10T12:46:45.930Z,5.23
2018-09-10T12:49:16.565Z,7.50
2018-09-10T12:51:48.249Z,5.73
2018-09-10T12:54:18.724Z,5.40
2018-09-10T12:56:47.728Z,6.20
2018-09-10T12:59:16.693Z,15.70
2018-09-10T13:01:46.148Z,9.77
2018-09-10T13:04:15.477Z,6.97
2018-09-10T13:06:45.005Z,8.00
2018-09-10T13:09:14.117Z,12.53
2018-09-10T13:11:43.074Z,5.97
2018-09-10T13:14:13.513Z,3.70
2018-09-10T13:16:43.011Z,5.30
2018-09-10T13:19:12.062Z,10.13
2018-09-10T13:21:42.299Z,7.07
2018-09-10T13:24:11.391Z,7.33
2018-09-10T13:26:40.616Z,8.27
2018-09-10T13:29:09.905Z,9.60
2018-09-10T13:31:40.232Z,10.10
2018-09-10T13:34:09.565Z,4.90
2018-09-10T13:36:48.650Z,8.13
2018-09-10T13:39:19.414Z,5.43
2018-09-10T13:41:49.134Z,7.93
2018-09-10T13:44:18.047Z,5.37
2018-09-10T13:46:47.069Z,5.70
2018-09-10T13:49:17.586Z,4.63
2018-09-10T13:51:50.782Z,8.87
2018-09-10T13:54:21.744Z,7.27
2018-09-10T13:56:52.306Z,9.17
2018-09-10T13:59:22.513Z,5.50
2018-09-10T14:01:52.486Z,6.70
2018-09-10T14:04:21.471Z,9.23
2018-09-10T14:06:58.730Z,9.43
2018-09-10T14:09:27.999Z,4.57
2018-09-10T14:11:56.998Z,6.63
2018-09-10T14:14:27.810Z,7.90
2018-09-10T14:16:57.231Z,9.63
2018-09-10T14:19:28.410Z,9.10
2018-09-10T14:21:57.780Z,5.00
2018-09-10T14:24:27.884Z,4.20
2018-09-10T14:26:57.746Z,5.47
2018-09-10T14:29:27.577Z,6.53
2018-09-10T14:31:57.181Z,7.23
2018-09-10T14:34:26.647Z,4.23
2018-09-10T14:36:56.326Z,5.23
2018-09-10T14:39:34.311Z,6.53
2018-09-10T14:42:04.387Z,5.00
2018-09-10T14:44:33.899Z,9.07
2018-09-10T14:47:04.198Z,7.73
2018-09-10T14:49:37.332Z,8.40
2018-09-10T14:52:09.950Z,5.57
2018-09-10T14:54:39.154Z,8.70
2018-09-10T14:57:11.251Z,4.37
2018-09-10T14:59:42.763Z,7.93
2018-09-10T15:02:26.744Z,5.07
2018-09-10T15:04:56.501Z,6.97
2018-09-10T15:07:25.715Z,7.37
2018-09-10T15:09:54.580Z,8.20
2018-09-10T15:12:25.851Z,4.33
2018-09-10T15:14:55.151Z,8.00
2018-09-10T15:17:24.089Z,7.00
2018-09-10T15:20:02.739Z,7.90
2018-09-10T15:22:32.438Z,7.50
2018-09-10T15:25:02.624Z,6.67
2018-09-10T15:27:33.526Z,6.40
2018-09-10T15:30:05.740Z,6.40
2018-09-10T15:32:35.117Z,10.37
2018-09-10T15:35:04.966Z,11.87
2018-09-10T15:37:35.605Z,8.10
2018-09-10T15:40:05.071Z,12.17
2018-09-10T15:42:36.049Z,8.07
2018-09-10T15:45:14.588Z,8.47
2018-09-10T15:47:47.496Z,6.80
2018-09-10T15:50:22.082Z,4.23
2018-09-10T15:52:52.398Z,8.33
2018-09-10T15:55:21.426Z,6.50
2018-09-10T15:57:51.690Z,5.30
2018-09-10T16:00:20.998Z,6.27
2018-09-10T16:02:50.010Z,4.90
2018-09-10T16:05:19.858Z,4.00
2018-09-10T16:07:49.103Z,4.60
2018-09-10T16:10:18.069Z,7.60
2018-09-10T16:12:47.137Z,5.53
2018-09-10T16:15:18.412Z,8.93
2018-09-10T16:17:47.698Z,7.67
2018-09-10T16:20:16.616Z,6.00
2018-09-10T16:22:46.552Z,5.63
2018-09-10T16:25:16.789Z,7.40
2018-09-10T16:27:46.727Z,6.30
2018-09-10T16:30:18.646Z,5.97
2018-09-10T16:32:48.463Z,8.40
2018-09-10T16:35:20.938Z,5.37
2018-09-10T16:37:50.310Z,7.43
2018-09-10T16:40:19.262Z,8.10
2018-09-10T16:42:49.285Z,8.17
2018-09-10T16:45:19.694Z,7.93
2018-09-10T16:47:49.625Z,6.87
2018-09-10T16:50:20.191Z,6.50
2018-09-10T16:52:53.860Z,7.37
2018-09-10T16:55:25.501Z,11.23
2018-09-10T16:57:56.374Z,7.63
2018-09-10T17:00:25.316Z,8.50
2018-09-10T17:02:54.971Z,7.03
2018-09-10T17:05:26.217Z,8.27
2018-09-10T17:07:59.329Z,9.63
2018-09-10T17:10:29.039Z,12.73
2018-09-10T17:13:00.222Z,7.10
2018-09-10T17:15:30.239Z,9.33
2018-09-10T17:18:00.029Z,6.10
2018-09-10T17:20:30.097Z,10.67
2018-09-10T17:23:02.037Z,6.43
2018-09-10T17:25:33.006Z,7.33
2018-09-10T17:28:02.361Z,10.40
2018-09-10T17:30:31.307Z,6.57
2018-09-10T17:33:00.582Z,7.33
2018-09-10T17:35:30.480Z,7.67
2018-09-10T17:38:03.341Z,11.67
2018-09-10T17:40:32.365Z,9.17
2018-09-10T17:43:02.695Z,8.87
2018-09-10T17:45:31.697Z,6.77
2018-09-10T17:48:07.257Z,6.43
2018-09-10T17:50:36.183Z,9.70
2018-09-10T17:53:06.217Z,6.33
2018-09-10T17:55:36.460Z,7.80
2018-09-10T17:58:15.538Z,7.30
2018-09-10T18:00:48.108Z,7.13
2018-09-10T18:03:18.060Z,7.60
2018-09-10T18:05:47.009Z,5.73
2018-09-10T18:08:16.996Z,8.87
2018-09-10T18:10:49.529Z,8.83
2018-09-10T18:13:18.758Z,7.10
2018-09-10T18:15:47.599Z,7.83
2018-09-10T18:18:19.394Z,7.43
2018-09-10T18:20:48.331Z,9.90
2018-09-10T18:23:23.655Z,10.70
2018-09-10T18:26:00.014Z,8.17
2018-09-10T18:28:31.312Z,8.50
2018-09-10T18:31:04.783Z,12.43
2018-09-10T18:36:12.355Z,10.67
2018-09-10T18:38:43.757Z,10.13
2018-09-10T18:41:12.744Z,11.33
2018-09-10T18:43:44.581Z,8.33
2018-09-10T18:46:16.183Z,10.27
2018-09-10T18:48:48.747Z,7.20
2018-09-10T18:51:18.455Z,11.73
2018-09-10T18:53:49.262Z,7.33
2018-09-10T18:56:19.734Z,11.43
2018-09-10T18:58:50.457Z,10.13
2018-09-10T19:01:20.884Z,9.80
2018-09-10T19:03:51.585Z,10.53
2018-09-10T19:06:20.803Z,8.90
2018-09-10T19:08:49.752Z,9.20
2018-09-10T19:11:20.469Z,9.13
2018-09-10T19:13:51.989Z,10.20
2018-09-10T19:16:21.766Z,11.23
2018-09-10T19:18:52.352Z,11.00
2018-09-10T19:21:23.556Z,9.13
2018-09-10T19:23:54.913Z,12.90
2018-09-10T19:26:23.876Z,11.00
2018-09-10T19:28:54.625Z,10.33
2018-09-10T19:31:25.764Z,10.77
2018-09-10T19:33:55.285Z,8.80
2018-09-10T19:36:25.550Z,11.57
2018-09-10T19:39:00.966Z,8.97
2018-09-10T19:41:30.208Z,11.93
2018-09-10T19:44:06.309Z,10.77
2018-09-10T19:46:35.330Z,8.90
2018-09-10T19:49:05.718Z,13.87
2018-09-10T19:51:35.700Z,9.53
2018-09-10T19:54:06.088Z,12.80
2018-09-10T19:56:35.773Z,12.80
2018-09-10T19:59:04.733Z,8.67
2018-09-10T20:01:36.678Z,11.13
2018-09-10T20:04:06.105Z,10.57
2018-09-10T20:06:39.184Z,9.03
2018-09-10T20:09:10.437Z,11.20
2018-09-10T20:11:40.385Z,9.20
2018-09-10T20:14:13.981Z,8.90
2018-09-10T20:16:45.044Z,9.50
2018-09-10T20:19:14.930Z,11.43
2018-09-10T20:21:45.816Z,10.30
2018-09-10T20:24:15.792Z,12.70
2018-09-10T20:26:45.294Z,11.47
2018-09-10T20:29:14.269Z,11.47
2018-09-10T20:31:43.529Z,13.57
2018-09-10T20:34:13.255Z,11.40
2018-09-10T20:36:42.561Z,14.50
2018-09-10T20:39:13.086Z,10.80
2018-09-10T20:41:42.234Z,10.47
2018-09-10T20:44:13.208Z,11.43
2018-09-10T20:46:42.623Z,13.43
2018-09-10T20:49:12.912Z,11.00
2018-09-10T20:51:43.761Z,16.80
2018-09-10T20:54:14.335Z,10.63
2018-09-10T20:56:43.214Z,14.80
2018-09-10T20:59:12.216Z,10.73
2018-09-10T21:01:41.224Z,13.93
2018-09-10T21:04:10.859Z,12.87
2018-09-10T21:06:40.903Z,14.63
2018-09-10T21:09:11.711Z,13.13
2018-09-10T21:11:40.653Z,12.37
2018-09-10T21:14:10.224Z,11.47
2018-09-10T21:16:39.168Z,14.73
2018-09-10T21:19:10.265Z,11.47
2018-09-10T21:21:39.184Z,13.53
2018-09-10T21:24:10.013Z,12.97
2018-09-10T21:26:39.864Z,12.63
2018-09-10T21:29:10.368Z,13.67
2018-09-10T21:31:39.379Z,14.00
2018-09-10T21:34:09.298Z,12.63
2018-09-10T21:36:38.249Z,10.57
2018-09-10T21:39:09.743Z,17.63
2018-09-10T21:41:38.933Z,12.87
2018-09-10T21:44:09.983Z,14.43
2018-09-10T21:46:40.048Z,12.20
2018-09-10T21:49:11.509Z,16.43
2018-09-10T21:51:41.254Z,14.23
2018-09-10T21:54:10.614Z,14.23
2018-09-10T21:56:39.948Z,11.70
2018-09-10T21:59:09.902Z,12.83
2018-09-10T22:01:39.179Z,14.67
2018-09-10T22:04:09.299Z,12.03
2018-09-10T22:06:38.744Z,16.27
2018-09-10T22:09:09.129Z,13.37
2018-09-10T22:11:45.410Z,11.33
2018-09-10T22:14:14.323Z,11.90
2018-09-10T22:16:43.401Z,13.17
2018-09-10T22:19:13.443Z,16.97
2018-09-10T22:21:44.920Z,12.80
2018-09-10T22:24:14.110Z,16.03
2018-09-10T22:26:43.035Z,15.20
2018-09-10T22:29:11.945Z,14.93
2018-09-10T22:31:42.443Z,11.70
2018-09-10T22:34:20.650Z,11.63
2018-09-10T22:36:51.375Z,17.37
2018-09-10T22:39:22.921Z,11.97
2018-09-10T22:41:53.748Z,10.37
2018-09-10T22:44:23.427Z,15.17
2018-09-10T22:46:52.368Z,13.70
2018-09-10T22:49:21.339Z,11.57
2018-09-10T22:51:50.733Z,10.60
2018-09-10T22:54:20.097Z,15.23
2018-09-10T22:56:49.444Z,11.50
2018-09-10T22:59:18.650Z,11.73
2018-09-10T23:01:48.489Z,13.33
2018-09-10T23:04:17.675Z,13.17
2018-09-10T23:06:46.589Z,10.23
2018-09-10T23:09:17.593Z,13.37
2018-09-10T23:11:47.893Z,14.60
2018-09-10T23:14:16.805Z,10.50
2018-09-10T23:16:45.790Z,14.40
2018-09-10T23:19:14.800Z,11.13
2018-09-10T23:21:43.932Z,13.87
2018-09-10T23:24:13.802Z,12.87
2018-09-10T23:26:43.005Z,12.60
2018-09-10T23:29:11.898Z,10.73
2018-09-10T23:31:40.762Z,14.83
2018-09-10T23:34:09.682Z,12.37
2018-09-10T23:36:43.748Z,14.87
2018-09-10T23:39:13.629Z,8.87
2018-09-10T23:41:42.622Z,14.17
2018-09-10T23:44:12.485Z,11.40
2018-09-10T23:46:42.820Z,12.93
2018-09-10T23:49:11.777Z,10.23
2018-09-10T23:51:41.381Z,13.90
2018-09-10T23:54:13.112Z,10.83
2018-09-10T23:56:42.231Z,15.33
2018-09-10T23:59:11.107Z,13.80
